createdAt,value
2022-10-19T00:01:55.756Z,94.25
2022-10-19T00:04:58.908Z,94.44
2022-10-19T00:08:02.016Z,94.34
2022-10-19T00:11:03.670Z,94.57
2022-10-19T00:14:07.608Z,94.32
2022-10-19T00:17:09.133Z,94.37
2022-10-19T00:20:12.812Z,94.57
2022-10-19T00:23:14.552Z,94.37
2022-10-19T00:26:16.160Z,94.28
2022-10-19T00:29:18.013Z,94.33
2022-10-19T00:32:19.650Z,94.36
2022-10-19T00:35:22.750Z,94.33
2022-10-19T00:38:24.637Z,94.54
2022-10-19T00:41:28.026Z,94.90
2022-10-19T00:44:48.668Z,94.83
2022-10-19T00:47:51.015Z,94.83
2022-10-19T00:50:55.782Z,94.76
2022-10-19T00:53:57.719Z,95.04
2022-10-19T00:56:59.945Z,95.22
2022-10-19T01:00:03.161Z,95.33
2022-10-19T01:03:05.147Z,95.49
2022-10-19T01:06:08.391Z,95.15
2022-10-19T01:09:09.899Z,94.98
2022-10-19T01:12:18.684Z,94.70
2022-10-19T01:15:26.185Z,94.50
2022-10-19T01:18:33.060Z,94.48
2022-10-19T01:21:39.566Z,94.08
2022-10-19T01:28:12.015Z,94.28
2022-10-19T01:31:21.557Z,94.62
2022-10-19T01:34:26.174Z,94.87
2022-10-19T01:37:30.559Z,94.94
2022-10-19T01:40:38.494Z,94.83
2022-10-19T01:43:41.853Z,94.85
2022-10-19T01:46:48.725Z,94.90
2022-10-19T01:49:54.511Z,94.90
2022-10-19T01:52:56.857Z,94.74
2022-10-19T01:56:00.013Z,95.04
2022-10-19T01:59:04.198Z,95.29
2022-10-19T02:02:08.980Z,95.12
2022-10-19T02:05:11.372Z,95.00
2022-10-19T02:08:17.718Z,95.06
2022-10-19T02:11:20.019Z,95.35
2022-10-19T02:14:22.702Z,95.28
2022-10-19T02:17:27.399Z,95.40
2022-10-19T02:20:29.666Z,95.46
2022-10-19T02:23:31.388Z,95.81
2022-10-19T02:26:33.168Z,95.92
2022-10-19T02:29:36.950Z,96.05
2022-10-19T02:32:40.067Z,96.09
2022-10-19T02:35:42.448Z,96.15
2022-10-19T02:38:44.363Z,96.55
2022-10-19T02:41:49.415Z,96.51
2022-10-19T02:44:58.484Z,96.55
2022-10-19T02:48:04.940Z,96.67
2022-10-19T02:51:06.574Z,96.78
2022-10-19T02:54:08.608Z,96.90
2022-10-19T02:57:14.835Z,97.00
2022-10-19T03:00:16.429Z,97.19
2022-10-19T03:03:19.472Z,97.18
2022-10-19T03:06:21.044Z,97.47
2022-10-19T03:09:22.635Z,97.44
2022-10-19T03:12:24.161Z,97.67
2022-10-19T03:15:29.082Z,97.63
2022-10-19T03:18:32.071Z,97.56
2022-10-19T03:21:34.262Z,97.71
2022-10-19T03:24:35.808Z,97.77
2022-10-19T03:27:37.435Z,98.14
2022-10-19T03:30:39.006Z,98.41
2022-10-19T03:33:42.689Z,98.41
2022-10-19T03:36:44.283Z,98.24
2022-10-19T03:39:46.461Z,98.50
2022-10-19T03:42:48.064Z,98.48
2022-10-19T03:45:49.623Z,98.49
2022-10-19T03:48:52.613Z,98.45
2022-10-19T03:51:54.282Z,98.52
2022-10-19T03:54:56.053Z,98.56
2022-10-19T03:57:58.083Z,98.45
2022-10-19T04:01:00.071Z,98.63
2022-10-19T04:04:04.209Z,98.78
2022-10-19T04:07:05.886Z,98.41
2022-10-19T04:10:08.154Z,98.66
2022-10-19T04:13:09.684Z,98.62
2022-10-19T04:16:13.538Z,98.24
2022-10-19T04:19:16.811Z,98.15
2022-10-19T04:22:18.356Z,98.14
2022-10-19T04:25:19.966Z,98.23
2022-10-19T04:28:21.618Z,98.19
2022-10-19T04:31:23.202Z,98.36
2022-10-19T04:34:26.609Z,98.49
2022-10-19T04:37:28.399Z,98.54
2022-10-19T04:40:30.130Z,98.57
2022-10-19T04:43:31.782Z,98.52
2022-10-19T04:46:34.113Z,98.30
2022-10-19T04:49:37.297Z,98.21
2022-10-19T04:52:39.461Z,98.13
2022-10-19T04:55:41.225Z,98.33
2022-10-19T04:58:42.850Z,98.26
2022-10-19T05:01:47.242Z,97.98
2022-10-19T05:04:50.628Z,98.09
2022-10-19T05:07:52.376Z,98.13
2022-10-19T05:10:53.939Z,98.23
2022-10-19T05:13:56.050Z,98.23
2022-10-19T05:16:57.583Z,98.53
2022-10-19T05:20:00.686Z,98.99
2022-10-19T05:23:06.250Z,98.57
2022-10-19T05:26:10.379Z,98.89
2022-10-19T05:29:13.012Z,98.68
2022-10-19T05:32:14.559Z,98.63
2022-10-19T05:35:20.091Z,99.10
2022-10-19T05:38:24.043Z,98.74
2022-10-19T05:41:26.609Z,98.54
2022-10-19T05:44:28.366Z,99.14
2022-10-19T05:47:31.120Z,99.13
2022-10-19T05:50:34.570Z,99.40
2022-10-19T05:53:36.123Z,99.34
2022-10-19T05:56:38.040Z,99.21
2022-10-19T05:59:39.784Z,99.02
2022-10-19T06:02:41.266Z,98.75
2022-10-19T06:05:44.367Z,98.58
2022-10-19T06:08:46.162Z,98.62
2022-10-19T06:11:48.037Z,99.05
2022-10-19T06:14:50.940Z,98.92
2022-10-19T06:17:54.730Z,99.11
2022-10-19T06:21:01.654Z,99.36
2022-10-19T06:24:04.830Z,99.19
2022-10-19T06:27:07.181Z,99.02
2022-10-19T06:30:09.236Z,99.00
2022-10-19T06:33:10.841Z,99.05
2022-10-19T06:36:14.845Z,99.19
2022-10-19T06:39:16.733Z,99.09
2022-10-19T06:42:18.315Z,99.40
2022-10-19T06:45:20.026Z,99.32
2022-10-19T06:48:21.688Z,99.50
2022-10-19T06:51:26.214Z,99.66
2022-10-19T06:54:28.003Z,99.82
2022-10-19T06:57:29.737Z,99.94
2022-10-19T07:00:31.543Z,99.83
2022-10-19T07:03:33.262Z,99.64
2022-10-19T07:06:36.328Z,99.36
2022-10-19T07:09:38.401Z,99.46
2022-10-19T07:12:40.121Z,99.84
2022-10-19T07:15:41.816Z,99.87
2022-10-19T07:18:43.331Z,99.94
2022-10-19T07:21:46.596Z,100.00
2022-10-19T07:24:48.392Z,100.00
2022-10-19T07:27:50.224Z,100.00
2022-10-19T07:30:51.925Z,100.00
2022-10-19T07:33:53.903Z,100.00
2022-10-19T07:36:57.670Z,100.00
2022-10-19T07:39:59.484Z,99.93
2022-10-19T07:43:01.214Z,99.66
2022-10-19T07:46:05.908Z,99.75
2022-10-19T07:49:09.819Z,99.73
2022-10-19T07:52:13.022Z,99.55
2022-10-19T07:55:14.747Z,99.62
2022-10-19T07:58:16.367Z,99.57
2022-10-19T08:01:19.242Z,99.81
2022-10-19T08:07:43.950Z,100.00
2022-10-19T08:10:45.716Z,99.98
2022-10-19T08:13:47.514Z,100.00
2022-10-19T08:16:49.322Z,99.69
2022-10-19T08:19:50.986Z,99.43
2022-10-19T08:22:57.941Z,99.71
2022-10-19T08:26:00.698Z,99.78
2022-10-19T08:29:03.169Z,100.00
2022-10-19T08:32:05.175Z,100.00
2022-10-19T08:35:10.024Z,100.00
2022-10-19T08:38:13.954Z,100.00
2022-10-19T08:41:21.464Z,100.00
2022-10-19T08:44:41.072Z,100.00
2022-10-19T08:47:48.388Z,99.48
2022-10-19T08:50:50.211Z,98.66
2022-10-19T08:53:55.672Z,97.77
2022-10-19T08:57:02.147Z,96.78
2022-10-19T09:00:06.846Z,96.76
2022-10-19T09:03:27.182Z,95.13
2022-10-19T09:06:48.433Z,94.68
2022-10-19T09:09:54.225Z,93.79
2022-10-19T09:12:59.395Z,92.84
2022-10-19T09:16:01.286Z,93.14
2022-10-19T09:19:03.374Z,92.57
2022-10-19T09:22:07.940Z,92.35
2022-10-19T09:25:13.605Z,92.13
2022-10-19T09:28:21.863Z,90.91
2022-10-19T09:31:30.399Z,90.64
2022-10-19T09:34:35.548Z,90.09
2022-10-19T09:37:39.678Z,89.60
2022-10-19T09:40:42.890Z,89.52
2022-10-19T09:43:50.894Z,90.05
2022-10-19T09:46:55.513Z,88.40
2022-10-19T09:50:06.351Z,88.13
2022-10-19T09:53:18.228Z,87.58
2022-10-19T09:56:22.239Z,87.05
2022-10-19T09:59:24.861Z,86.96
2022-10-19T10:02:30.792Z,86.86
2022-10-19T10:05:33.233Z,87.15
2022-10-19T10:08:39.523Z,87.68
2022-10-19T10:11:44.086Z,87.24
2022-10-19T10:14:46.383Z,87.60
2022-10-19T10:17:48.917Z,87.41
2022-10-19T10:21:01.450Z,87.60
2022-10-19T10:24:05.857Z,86.49
2022-10-19T10:27:24.676Z,86.10
2022-10-19T10:30:27.112Z,86.31
2022-10-19T10:33:45.598Z,86.96
2022-10-19T10:36:50.394Z,85.80
2022-10-19T10:39:53.562Z,86.08
2022-10-19T10:42:58.106Z,85.43
2022-10-19T10:46:03.886Z,85.05
2022-10-19T10:49:06.851Z,84.75
2022-10-19T10:52:12.645Z,85.02
2022-10-19T10:55:16.812Z,84.74
2022-10-19T10:58:24.306Z,83.96
2022-10-19T11:01:29.505Z,84.61
2022-10-19T11:04:35.728Z,84.90
2022-10-19T11:07:40.596Z,84.70
2022-10-19T11:10:46.448Z,84.65
2022-10-19T11:13:51.702Z,84.41
2022-10-19T11:16:55.269Z,85.19
2022-10-19T11:19:57.008Z,83.63
2022-10-19T11:23:02.280Z,84.29
2022-10-19T11:26:12.675Z,83.99
2022-10-19T11:29:29.274Z,83.90
2022-10-19T11:32:36.005Z,83.09
2022-10-19T11:35:49.826Z,82.97
2022-10-19T11:38:58.915Z,83.01
2022-10-19T11:42:06.806Z,82.95
2022-10-19T11:45:16.062Z,83.69
2022-10-19T11:48:25.419Z,82.88
2022-10-19T11:51:33.182Z,83.71
2022-10-19T11:54:43.278Z,83.57
2022-10-19T11:57:50.138Z,82.94
2022-10-19T12:00:56.895Z,83.48
2022-10-19T12:04:03.646Z,83.08
2022-10-19T12:07:13.918Z,82.65
2022-10-19T12:10:20.872Z,82.29
2022-10-19T12:13:27.314Z,82.32
2022-10-19T12:16:34.444Z,82.56
2022-10-19T12:19:39.233Z,83.00
2022-10-19T12:22:41.290Z,83.12
2022-10-19T12:25:45.041Z,83.08
2022-10-19T12:28:48.956Z,83.15
2022-10-19T12:31:53.441Z,82.93
2022-10-19T12:34:58.067Z,82.95
2022-10-19T12:38:05.606Z,82.91
2022-10-19T12:41:11.028Z,81.88
2022-10-19T12:47:26.141Z,82.20
2022-10-19T12:50:42.591Z,81.99
2022-10-19T12:53:48.513Z,81.99
2022-10-19T12:56:50.959Z,81.91
2022-10-19T13:00:10.656Z,81.83
2022-10-19T13:03:16.128Z,81.21
2022-10-19T13:06:20.274Z,81.76
2022-10-19T13:09:23.664Z,81.73
2022-10-19T13:12:42.137Z,81.62
2022-10-19T13:15:52.638Z,81.28
2022-10-19T13:19:11.939Z,81.26
2022-10-19T13:22:28.533Z,80.74
2022-10-19T13:25:35.309Z,80.49
2022-10-19T13:28:37.900Z,80.69
2022-10-19T13:31:39.817Z,81.17
2022-10-19T13:34:41.407Z,80.41
2022-10-19T13:37:43.401Z,79.66
2022-10-19T13:40:59.809Z,79.52
2022-10-19T13:44:03.147Z,79.38
2022-10-19T13:47:20.060Z,79.38
2022-10-19T13:50:30.192Z,79.54
2022-10-19T13:53:38.086Z,80.65
2022-10-19T13:56:46.341Z,80.17
2022-10-19T14:00:12.233Z,78.98
2022-10-19T14:03:23.913Z,80.06
2022-10-19T14:06:28.849Z,79.12
2022-10-19T14:09:42.168Z,79.54
2022-10-19T14:12:46.091Z,80.08
2022-10-19T14:15:50.419Z,80.20
2022-10-19T14:18:56.034Z,80.13
2022-10-19T14:21:58.804Z,80.59
2022-10-19T14:25:01.857Z,80.68
2022-10-19T14:28:06.831Z,81.06
2022-10-19T14:31:09.759Z,81.51
2022-10-19T14:34:13.431Z,80.72
2022-10-19T14:37:17.272Z,81.42
2022-10-19T14:40:26.821Z,81.40
2022-10-19T14:43:33.412Z,80.96
2022-10-19T14:46:35.787Z,81.21
2022-10-19T14:49:37.643Z,81.27
2022-10-19T14:52:40.300Z,81.84
2022-10-19T14:55:42.881Z,81.61
2022-10-19T14:58:51.707Z,81.70
2022-10-19T15:01:54.904Z,81.51
2022-10-19T15:05:01.619Z,81.24
2022-10-19T15:08:08.768Z,81.15
2022-10-19T15:11:20.855Z,81.50
2022-10-19T15:14:27.060Z,81.47
2022-10-19T15:17:29.529Z,81.13
2022-10-19T15:20:43.872Z,81.53
2022-10-19T15:24:06.742Z,81.31
2022-10-19T15:27:09.687Z,81.35
2022-10-19T15:30:25.612Z,81.45
2022-10-19T15:33:28.295Z,81.58
2022-10-19T15:36:30.737Z,81.91
2022-10-19T15:39:39.877Z,82.22
2022-10-19T15:42:45.531Z,82.33
2022-10-19T15:46:03.829Z,82.60
2022-10-19T15:49:25.625Z,82.48
2022-10-19T15:52:28.142Z,82.67
2022-10-19T15:55:30.556Z,82.94
2022-10-19T15:58:32.659Z,83.18
2022-10-19T16:01:35.994Z,83.35
2022-10-19T16:04:37.615Z,83.87
2022-10-19T16:07:40.098Z,84.02
2022-10-19T16:10:41.667Z,84.60
2022-10-19T16:13:43.205Z,84.56
2022-10-19T16:16:46.018Z,84.59
2022-10-19T16:19:47.812Z,84.80
2022-10-19T16:22:49.352Z,85.09
2022-10-19T16:25:52.879Z,85.15
2022-10-19T16:28:55.092Z,85.12
2022-10-19T16:31:57.987Z,85.32
2022-10-19T16:35:01.770Z,85.70
2022-10-19T16:38:03.427Z,85.51
2022-10-19T16:41:06.148Z,85.89
2022-10-19T16:44:07.577Z,86.11
2022-10-19T16:47:10.665Z,85.99
2022-10-19T16:50:12.515Z,85.98
2022-10-19T16:53:14.332Z,86.25
2022-10-19T16:56:15.944Z,86.17
2022-10-19T16:59:18.534Z,86.31
2022-10-19T17:02:22.330Z,86.14
2022-10-19T17:05:24.006Z,86.23
2022-10-19T17:08:37.183Z,86.23
2022-10-19T17:11:46.039Z,86.21
2022-10-19T17:14:47.773Z,86.42
2022-10-19T17:17:50.700Z,86.63
2022-10-19T17:20:52.821Z,86.70
2022-10-19T17:23:56.020Z,86.57
2022-10-19T17:26:58.346Z,86.72
2022-10-19T17:30:00.014Z,86.82
2022-10-19T17:33:03.027Z,86.71
2022-10-19T17:36:10.008Z,86.87
2022-10-19T17:39:17.977Z,86.93
2022-10-19T17:42:19.773Z,87.13
2022-10-19T17:45:21.419Z,87.14
2022-10-19T17:48:24.305Z,87.18
2022-10-19T17:51:27.911Z,87.27
2022-10-19T17:54:29.589Z,87.16
2022-10-19T17:57:34.112Z,87.46
2022-10-19T18:00:35.976Z,87.51
2022-10-19T18:03:41.621Z,87.45
2022-10-19T18:06:43.309Z,87.26
2022-10-19T18:09:44.929Z,87.24
2022-10-19T18:12:46.732Z,87.15
2022-10-19T18:15:48.564Z,87.25
2022-10-19T18:18:53.263Z,87.41
2022-10-19T18:21:54.926Z,87.20
2022-10-19T18:24:56.404Z,87.38
2022-10-19T18:27:57.962Z,87.26
2022-10-19T18:31:04.578Z,87.38
2022-10-19T18:34:08.505Z,87.39
2022-10-19T18:37:10.627Z,87.23
2022-10-19T18:40:12.247Z,87.39
2022-10-19T18:43:13.697Z,87.10
2022-10-19T18:46:18.655Z,87.02
2022-10-19T18:49:24.188Z,86.93
2022-10-19T18:52:25.968Z,87.05
2022-10-19T18:55:27.781Z,86.81
2022-10-19T18:58:31.005Z,86.93
2022-10-19T19:01:32.626Z,86.90
2022-10-19T19:04:35.995Z,87.14
2022-10-19T19:07:38.579Z,87.01
2022-10-19T19:10:40.243Z,87.14
2022-10-19T19:13:42.276Z,87.17
2022-10-19T19:16:44.633Z,87.34
2022-10-19T19:19:47.707Z,87.42
2022-10-19T19:22:49.109Z,87.36
2022-10-19T19:25:50.661Z,87.51
2022-10-19T19:28:52.401Z,87.33
2022-10-19T19:31:54.105Z,87.27
2022-10-19T19:34:57.266Z,87.16
2022-10-19T19:37:58.755Z,86.99
2022-10-19T19:41:03.364Z,86.97
2022-10-19T19:44:05.032Z,86.95
2022-10-19T19:47:09.208Z,86.83
2022-10-19T19:50:12.076Z,87.36
2022-10-19T19:53:13.562Z,87.03
2022-10-19T19:56:15.853Z,86.90
2022-10-19T19:59:17.404Z,87.07
2022-10-19T20:02:18.945Z,87.04
2022-10-19T20:05:22.488Z,87.12
2022-10-19T20:08:24.140Z,86.82
2022-10-19T20:11:27.106Z,86.81
2022-10-19T20:14:28.747Z,87.05
2022-10-19T20:17:30.288Z,87.22
2022-10-19T20:20:33.564Z,87.05
2022-10-19T20:23:35.157Z,87.37
2022-10-19T20:26:36.695Z,87.10
2022-10-19T20:29:40.418Z,87.31
2022-10-19T20:32:41.908Z,87.26
2022-10-19T20:35:47.162Z,87.47
2022-10-19T20:38:50.002Z,87.58
2022-10-19T20:41:51.661Z,87.48
2022-10-19T20:45:03.586Z,87.49
2022-10-19T20:48:05.388Z,87.81
2022-10-19T20:51:13.132Z,87.60
2022-10-19T20:54:15.768Z,87.69
2022-10-19T20:57:17.360Z,88.22
2022-10-19T21:00:19.020Z,88.01
2022-10-19T21:03:21.920Z,88.27
2022-10-19T21:06:25.207Z,88.36
2022-10-19T21:09:29.506Z,88.26
2022-10-19T21:12:31.188Z,88.32
2022-10-19T21:15:34.999Z,88.66
2022-10-19T21:18:36.697Z,88.92
2022-10-19T21:21:40.877Z,88.80
2022-10-19T21:24:42.611Z,88.97
2022-10-19T21:27:44.096Z,89.09
2022-10-19T21:30:45.644Z,88.90
2022-10-19T21:33:47.353Z,89.01
2022-10-19T21:36:50.426Z,88.87
2022-10-19T21:39:51.919Z,89.38
2022-10-19T21:42:53.526Z,88.86
2022-10-19T21:45:55.112Z,89.05
2022-10-19T21:48:57.144Z,89.36
2022-10-19T21:52:00.084Z,89.23
2022-10-19T21:55:01.730Z,89.16
2022-10-19T21:58:03.802Z,89.69
2022-10-19T22:01:05.801Z,89.28
2022-10-19T22:04:08.261Z,89.28
2022-10-19T22:07:11.322Z,89.56
2022-10-19T22:10:13.386Z,89.62
2022-10-19T22:13:15.152Z,89.30
2022-10-19T22:16:18.244Z,89.71
2022-10-19T22:19:19.977Z,89.67
2022-10-19T22:22:25.873Z,89.39
2022-10-19T22:25:28.962Z,90.27
2022-10-19T22:28:30.784Z,90.12
2022-10-19T22:31:33.110Z,90.73
2022-10-19T22:34:34.913Z,90.49
2022-10-19T22:37:38.423Z,90.49
2022-10-19T22:40:40.017Z,90.33
2022-10-19T22:43:41.588Z,89.58
2022-10-19T22:46:43.352Z,89.93
2022-10-19T22:49:44.950Z,90.10
2022-10-19T22:52:48.046Z,89.80
2022-10-19T22:55:49.832Z,89.84
2022-10-19T22:58:51.576Z,89.70
2022-10-19T23:01:53.145Z,89.70
2022-10-19T23:04:54.815Z,89.97
2022-10-19T23:07:57.795Z,89.76
2022-10-19T23:10:59.329Z,89.92
2022-10-19T23:14:04.073Z,89.94
2022-10-19T23:17:05.624Z,89.99
2022-10-19T23:20:07.908Z,90.13
2022-10-19T23:23:13.465Z,89.84
2022-10-19T23:26:16.260Z,89.79
2022-10-19T23:29:18.024Z,89.98
2022-10-19T23:32:19.646Z,89.70
2022-10-19T23:35:21.180Z,90.04
2022-10-19T23:38:24.211Z,89.84
2022-10-19T23:41:25.759Z,90.31
2022-10-19T23:44:27.504Z,90.27
2022-10-19T23:47:28.938Z,90.29
2022-10-19T23:50:30.440Z,90.02
2022-10-19T23:53:37.073Z,90.29
2022-10-19T23:56:43.904Z,90.23
2022-10-19T23:59:45.614Z,89.90
